Time;durP1;ratioP1;P1;durP2;ratioP2;P2;SDS_P1;SDS_P2;PMS_P1;PMS_P2;Temp;Humidity;BMP_temperature;BMP_pressure;BME280_temperature;BME280_humidity;BME280_pressure;Samples;Min_cycle;Max_cycle;Signal;HPM_P1;HPM_P2
2023/03/17 05:16:03;;;;;;;5.85;1.70;;;13.10;59.60;;;;;;4800988;29;20046;-72
2023/03/17 05:18:29;;;;;;;7.45;1.55;;;13.10;60.40;;;;;;4808003;29;20058;-70
2023/03/17 05:20:55;;;;;;;6.97;1.83;;;13.20;60.80;;;;;;4807436;29;20057;-72
2023/03/17 05:23:21;;;;;;;3.67;1.60;;;13.20;61.10;;;;;;4820964;29;20354;-79
2023/03/17 05:25:51;;;;;;;8.40;1.83;;;13.40;61.10;;;;;;4826249;29;20457;-69
2023/03/17 05:28:19;;;;;;;5.68;1.30;;;13.60;60.90;;;;;;4807891;29;20498;-73
2023/03/17 05:30:47;;;;;;;7.78;1.55;;;13.80;60.70;;;;;;4807751;29;20466;-71
2023/03/17 05:33:15;;;;;;;10.70;1.75;;;14.00;60.50;;;;;;4807789;29;20046;-73
2023/03/17 05:35:41;;;;;;;8.48;1.70;;;14.20;60.30;;;;;;4806430;29;20050;-72
2023/03/17 05:38:07;;;;;;;9.27;2.15;;;14.30;60.10;;;;;;4808600;29;20054;-73
2023/03/17 05:40:34;;;;;;;11.85;3.47;;;14.50;60.20;;;;;;4791999;29;20055;-72
2023/03/17 05:43:00;;;;;;;13.70;2.40;;;14.60;60.00;;;;;;4794354;29;20070;-71
2023/03/17 05:45:27;;;;;;;19.40;3.33;;;14.60;60.80;;;;;;4806141;29;20375;-73
2023/03/17 05:47:53;;;;;;;20.15;3.78;;;14.70;60.90;;;;;;4806695;29;20126;-75
2023/03/17 05:50:28;;;;;;;23.40;2.92;;;14.80;61.10;;;;;;4791846;29;20129;-77
2023/03/17 05:52:54;;;;;;;21.10;3.15;;;14.80;61.20;;;;;;4789190;29;20387;-73
2023/03/17 05:55:22;;;;;;;18.27;2.65;;;14.90;61.30;;;;;;4807920;29;20053;-75
2023/03/17 05:57:51;;;;;;;10.60;2.35;;;15.00;61.50;;;;;;4807649;29;20043;-73
2023/03/17 06:00:19;;;;;;;12.27;2.20;;;15.10;61.80;;;;;;4792549;29;20122;-74
2023/03/17 06:02:45;;;;;;;16.92;2.72;;;15.20;61.80;;;;;;4807801;29;20051;-73
2023/03/17 06:05:12;;;;;;;21.02;2.80;;;15.30;62.40;;;;;;4805910;29;20130;-74
2023/03/17 06:07:38;;;;;;;14.00;2.53;;;15.40;61.80;;;;;;4807983;29;20394;-75
2023/03/17 06:10:05;;;;;;;17.70;2.63;;;15.50;61.90;;;;;;4792670;29;20055;-73
2023/03/17 06:12:31;;;;;;;18.55;3.33;;;15.50;62.00;;;;;;4807024;29;20055;-74
2023/03/17 06:14:57;;;;;;;22.70;3.95;;;15.60;61.90;;;;;;4794963;29;20055;-75
2023/03/17 06:17:24;;;;;;;18.63;3.10;;;15.70;61.90;;;;;;4807363;29;20057;-73
2023/03/17 06:19:50;;;;;;;20.92;2.40;;;15.70;61.80;;;;;;4785766;30;20124;-73
2023/03/17 06:22:15;;;;;;;21.05;3.35;;;15.80;61.80;;;;;;4791218;29;20051;-73
2023/03/17 06:24:41;;;;;;;18.35;2.90;;;15.80;61.80;;;;;;4800626;29;20069;-72
2023/03/17 06:27:09;;;;;;;19.80;3.00;;;15.90;61.90;;;;;;4794175;29;20105;-72
2023/03/17 06:29:36;;;;;;;18.25;3.75;;;15.90;61.90;;;;;;4790187;30;20191;-76
2023/03/17 06:32:03;;;;;;;21.13;3.65;;;15.90;62.00;;;;;;4792940;29;20351;-73
2023/03/17 06:34:28;;;;;;;30.70;4.15;;;15.90;62.30;;;;;;4795993;29;20039;-70
2023/03/17 06:36:54;;;;;;;18.58;3.13;;;16.00;62.30;;;;;;4793567;29;20051;-71
2023/03/17 06:39:21;;;;;;;23.98;3.53;;;16.00;62.40;;;;;;4792631;30;20058;-73
2023/03/17 06:41:47;;;;;;;21.13;3.47;;;16.00;62.50;;;;;;4795831;29;20188;-71
2023/03/17 06:44:13;;;;;;;20.00;2.85;;;16.00;62.90;;;;;;4793105;30;20460;-73
2023/03/17 06:46:39;;;;;;;14.75;2.28;;;16.00;62.80;;;;;;4794160;29;20059;-79
2023/03/17 06:49:06;;;;;;;28.33;4.68;;;16.00;62.90;;;;;;4805169;29;20385;-76
2023/03/17 06:51:35;;;;;;;24.35;3.47;;;16.00;62.90;;;;;;4792467;30;20491;-74
2023/03/17 06:54:00;;;;;;;26.02;3.80;;;16.10;62.50;;;;;;4792460;30;20051;-76
2023/03/17 06:56:26;;;;;;;32.78;4.00;;;16.10;62.00;;;;;;4791665;30;20047;-75
2023/03/17 06:58:52;;;;;;;25.33;3.70;;;16.10;62.00;;;;;;4792704;30;20055;-75
2023/03/17 07:01:18;;;;;;;23.60;4.50;;;16.00;61.90;;;;;;4792798;30;20130;-75
2023/03/17 07:03:44;;;;;;;29.80;3.83;;;16.00;61.70;;;;;;4776694;30;20448;-75
2023/03/17 07:06:10;;;;;;;20.45;3.28;;;16.00;61.60;;;;;;4792075;30;20051;-75
2023/03/17 07:08:35;;;;;;;23.10;3.28;;;16.00;61.60;;;;;;4792570;30;20527;-79
2023/03/17 07:11:03;;;;;;;28.17;3.50;;;15.90;61.70;;;;;;4792480;30;20047;-76
2023/03/17 07:13:34;;;;;;;19.02;3.53;;;15.80;61.60;;;;;;4777073;30;20111;-77
2023/03/17 07:16:01;;;;;;;19.45;3.45;;;15.90;61.50;;;;;;4793170;30;20055;-77
2023/03/17 07:18:30;;;;;;;21.88;3.20;;;15.80;61.00;;;;;;4800314;29;20082;-76
2023/03/17 07:20:57;;;;;;;15.05;2.47;;;15.70;60.80;;;;;;4794375;29;20466;-78
2023/03/17 07:23:23;;;;;;;14.18;3.00;;;15.70;60.80;;;;;;4794188;29;20043;-77
2023/03/17 07:25:50;;;;;;;12.18;2.67;;;15.60;60.70;;;;;;4810022;29;20099;-75
2023/03/17 07:28:16;;;;;;;12.50;2.30;;;15.60;60.70;;;;;;4810260;29;20479;-76
2023/03/17 07:30:45;;;;;;;12.20;2.40;;;15.50;60.70;;;;;;4810479;29;20065;-77
2023/03/17 07:33:16;;;;;;;9.45;2.83;;;15.50;60.70;;;;;;4810328;29;20184;-75
2023/03/17 07:35:44;;;;;;;8.65;2.50;;;15.40;60.70;;;;;;4810178;29;20108;-78
2023/03/17 07:38:10;;;;;;;10.48;1.85;;;15.40;60.70;;;;;;4809706;29;20134;-76
2023/03/17 07:40:37;;;;;;;10.07;2.20;;;15.40;60.80;;;;;;4809762;29;20196;-75
2023/03/17 07:43:03;;;;;;;13.73;2.92;;;15.30;60.70;;;;;;4803785;29;20058;-75
2023/03/17 07:45:30;;;;;;;9.02;2.17;;;15.30;60.50;;;;;;4807602;29;20046;-73
2023/03/17 07:47:55;;;;;;;20.35;2.42;;;15.30;60.60;;;;;;4809832;29;20051;-74
2023/03/17 07:50:22;;;;;;;14.82;2.78;;;15.20;60.70;;;;;;4809863;29;20051;-78
2023/03/17 07:52:47;;;;;;;10.93;2.30;;;15.20;60.90;;;;;;4804264;29;20055;-74
2023/03/17 07:55:13;;;;;;;12.65;2.03;;;15.10;61.10;;;;;;4809571;29;20051;-75
2023/03/17 07:57:40;;;;;;;10.85;2.70;;;15.20;61.40;;;;;;4809644;29;20050;-73
2023/03/17 08:00:08;;;;;;;9.20;1.60;;;15.10;61.50;;;;;;4810100;29;20051;-74
2023/03/17 08:02:35;;;;;;;11.43;1.85;;;15.10;61.80;;;;;;4809999;29;20115;-74
2023/03/17 08:05:02;;;;;;;10.23;2.00;;;15.00;62.00;;;;;;4807746;29;20058;-75
2023/03/17 08:07:30;;;;;;;9.23;2.10;;;15.00;61.90;;;;;;4810105;29;20130;-76
2023/03/17 08:09:56;;;;;;;13.85;2.50;;;15.00;61.70;;;;;;4794115;29;20073;-74
2023/03/17 08:12:23;;;;;;;13.82;2.20;;;15.00;61.70;;;;;;4809537;29;20054;-74
2023/03/17 08:14:49;;;;;;;9.30;2.10;;;15.00;61.50;;;;;;4809671;29;20051;-75
2023/03/17 08:17:15;;;;;;;6.30;1.65;;;14.90;61.40;;;;;;4808859;29;20057;-74
2023/03/17 08:19:41;;;;;;;11.85;1.85;;;14.90;61.30;;;;;;4809066;29;20051;-73
2023/03/17 08:22:07;;;;;;;11.90;2.75;;;14.90;61.20;;;;;;4793516;29;20059;-74
2023/03/17 08:24:33;;;;;;;10.45;2.25;;;14.90;61.20;;;;;;4809699;29;20051;-74
2023/03/17 08:26:59;;;;;;;4.13;1.58;;;14.90;61.20;;;;;;4809454;29;20471;-76
2023/03/17 08:29:25;;;;;;;7.75;1.73;;;14.90;61.10;;;;;;4809486;29;20367;-77
2023/03/17 08:31:50;;;;;;;4.90;1.70;;;14.80;61.10;;;;;;4809186;29;20069;-75
2023/03/17 08:34:16;;;;;;;6.35;1.90;;;14.80;61.10;;;;;;4793386;29;20051;-74
2023/03/17 08:36:43;;;;;;;10.35;1.85;;;14.80;61.10;;;;;;4807769;29;21662;-75
2023/03/17 08:39:09;;;;;;;10.23;1.98;;;14.80;61.70;;;;;;4814641;29;20067;-73
2023/03/17 08:41:36;;;;;;;6.63;2.08;;;14.80;62.40;;;;;;4811124;29;20058;-78
2023/03/17 08:44:02;;;;;;;5.78;1.70;;;14.80;63.20;;;;;;4815241;29;20050;-78
2023/03/17 08:46:32;;;;;;;7.50;1.48;;;15.00;63.40;;;;;;4792571;29;20135;-76
2023/03/17 08:48:59;;;;;;;6.07;1.95;;;15.00;62.50;;;;;;4807561;29;20125;-76
2023/03/17 08:51:28;;;;;;;4.78;1.60;;;15.00;63.10;;;;;;4802124;29;20058;-77
2023/03/17 08:53:55;;;;;;;11.00;1.85;;;15.10;62.40;;;;;;4807513;29;20143;-78
2023/03/17 08:56:21;;;;;;;7.45;1.70;;;15.00;62.00;;;;;;4808989;29;20078;-76
2023/03/17 08:59:11;;;;;;;4.97;1.10;;;15.00;61.70;;;;;;4809032;29;20070;-79
2023/03/17 09:01:55;;;;;;;4.95;1.75;;;15.00;61.80;;;;;;4789308;29;20058;-78
2023/03/17 09:04:22;;;;;;;8.25;1.77;;;15.00;61.80;;;;;;4792322;29;20058;-78
2023/03/17 09:06:49;;;;;;;7.30;2.25;;;15.00;61.30;;;;;;4792929;29;20054;-79
2023/03/17 09:09:15;;;;;;;6.70;1.80;;;15.00;61.00;;;;;;4791988;29;20042;-77
2023/03/17 09:11:41;;;;;;;9.07;2.38;;;15.00;60.70;;;;;;4793029;29;20065;-73
2023/03/17 09:14:07;;;;;;;9.02;2.20;;;14.90;60.40;;;;;;4807524;29;20125;-74
2023/03/17 09:16:33;;;;;;;7.35;2.22;;;14.90;60.10;;;;;;4809373;29;20054;-75
2023/03/17 09:18:58;;;;;;;8.57;2.33;;;14.90;60.10;;;;;;4791728;29;20051;-76
2023/03/17 09:21:24;;;;;;;8.20;2.17;;;14.90;60.10;;;;;;4807158;29;20084;-76
2023/03/17 09:23:50;;;;;;;9.45;3.15;;;15.00;60.10;;;;;;4807527;29;20047;-77
2023/03/17 09:26:16;;;;;;;13.82;2.42;;;15.10;60.30;;;;;;4808282;29;20046;-73
2023/03/17 09:28:42;;;;;;;9.95;1.85;;;15.20;60.40;;;;;;4791789;29;20161;-74
2023/03/17 09:31:10;;;;;;;11.73;2.08;;;15.20;60.50;;;;;;4808257;29;20191;-74
2023/03/17 09:33:40;;;;;;;12.00;2.60;;;15.30;60.50;;;;;;4808146;29;20139;-74
2023/03/17 09:36:07;;;;;;;12.45;2.25;;;15.30;60.90;;;;;;4816503;29;20082;-72
2023/03/17 09:38:33;;;;;;;11.70;2.00;;;15.30;60.70;;;;;;4802515;29;20170;-77
2023/03/17 09:41:34;;;;;;;13.60;2.00;;;15.30;60.50;;;;;;4807957;29;20104;-74
2023/03/17 09:44:25;;;;;;;11.05;1.98;;;15.40;60.70;;;;;;4792752;29;20352;-76
2023/03/17 09:47:12;;;;;;;11.00;1.65;;;15.40;60.90;;;;;;4807803;29;20340;-73
2023/03/17 09:49:44;;;;;;;7.65;2.17;;;15.40;61.30;;;;;;4806885;29;20061;-74
2023/03/17 09:52:17;;;;;;;14.65;2.00;;;15.40;61.40;;;;;;4792480;29;20058;-75
2023/03/17 09:54:45;;;;;;;10.50;2.30;;;15.40;61.50;;;;;;4808163;29;20082;-74
2023/03/17 09:57:38;;;;;;;12.80;1.50;;;15.50;61.40;;;;;;4807685;29;20093;-76
2023/03/17 10:00:13;;;;;;;9.60;1.30;;;15.60;61.60;;;;;;4804551;29;20139;-74
2023/03/17 10:02:40;;;;;;;10.98;1.83;;;15.70;61.60;;;;;;4807224;29;20419;-78
2023/03/17 10:05:20;;;;;;;11.95;1.58;;;15.80;61.20;;;;;;4808032;29;20046;-74
2023/03/17 10:07:55;;;;;;;7.15;1.73;;;16.00;60.90;;;;;;4791717;29;20051;-77
2023/03/17 10:10:27;;;;;;;8.27;1.58;;;16.10;60.50;;;;;;4791515;29;20443;-76
2023/03/17 10:12:56;;;;;;;13.68;2.38;;;16.20;60.40;;;;;;4807695;29;20066;-75
2023/03/17 10:15:37;;;;;;;4.93;1.10;;;16.20;60.20;;;;;;4807315;29;20051;-75
2023/03/17 10:18:13;;;;;;;6.05;1.15;;;16.20;60.10;;;;;;4808000;29;20502;-74
2023/03/17 10:20:53;;;;;;;6.18;1.40;;;16.20;60.10;;;;;;4807090;29;20066;-75
2023/03/17 10:23:24;;;;;;;5.85;1.40;;;16.10;60.00;;;;;;4807758;29;20083;-76
2023/03/17 10:25:51;;;;;;;7.90;1.77;;;16.10;60.10;;;;;;4807113;29;20054;-74
2023/03/17 10:28:19;;;;;;;5.13;1.30;;;16.00;60.80;;;;;;4805118;29;20141;-76
2023/03/17 10:30:45;;;;;;;5.60;1.33;;;16.00;60.20;;;;;;4807556;29;20055;-74
2023/03/17 10:33:11;;;;;;;7.28;1.67;;;15.90;60.30;;;;;;4807043;29;20114;-74
2023/03/17 10:35:39;;;;;;;8.60;1.65;;;15.90;60.40;;;;;;4806930;29;20067;-76
2023/03/17 10:38:18;;;;;;;5.85;1.38;;;15.80;60.40;;;;;;4813121;29;20461;-74
2023/03/17 10:40:47;;;;;;;4.10;1.00;;;15.80;60.50;;;;;;4825446;29;20089;-75
2023/03/17 10:43:19;;;;;;;7.63;0.95;;;15.80;60.70;;;;;;4811574;29;20494;-78
2023/03/17 10:46:02;;;;;;;4.00;0.95;;;15.70;61.00;;;;;;4806597;29;20437;-73
2023/03/17 10:48:29;;;;;;;5.30;1.02;;;15.70;61.10;;;;;;4792123;29;20097;-75
2023/03/17 10:50:57;;;;;;;4.35;1.50;;;15.70;61.10;;;;;;4807134;29;20405;-76
2023/03/17 10:53:26;;;;;;;4.30;1.58;;;15.70;60.90;;;;;;4806985;29;20347;-73
2023/03/17 10:55:58;;;;;;;3.50;1.83;;;15.60;60.60;;;;;;4806716;29;20146;-74
2023/03/17 10:58:35;;;;;;;6.25;2.13;;;15.60;60.50;;;;;;4807017;29;20439;-74
2023/03/17 11:01:20;;;;;;;6.38;2.15;;;15.60;60.70;;;;;;4807529;29;20379;-74
2023/03/17 11:03:47;;;;;;;5.00;1.73;;;15.60;60.60;;;;;;4806308;29;20078;-75
2023/03/17 11:06:15;;;;;;;5.43;1.55;;;15.50;60.80;;;;;;4800562;29;20047;-73
2023/03/17 11:08:50;;;;;;;7.45;2.13;;;15.50;61.00;;;;;;4807126;29;20102;-76
2023/03/17 11:11:43;;;;;;;6.68;1.92;;;15.50;61.10;;;;;;4806620;29;20555;-75
2023/03/17 11:14:17;;;;;;;9.38;2.17;;;15.40;61.50;;;;;;4796268;29;20053;-76
2023/03/17 11:16:56;;;;;;;7.00;2.00;;;15.40;61.90;;;;;;4806732;29;20054;-75
2023/03/17 11:19:34;;;;;;;9.82;2.53;;;15.40;62.10;;;;;;4795056;29;20114;-73
2023/03/17 11:22:10;;;;;;;10.90;2.45;;;15.40;62.30;;;;;;4776527;30;20053;-75
2023/03/17 11:25:08;;;;;;;8.63;2.13;;;15.40;62.40;;;;;;4776922;29;20486;-80
2023/03/17 11:27:48;;;;;;;8.35;2.08;;;15.40;64.00;;;;;;4809860;29;20059;-71
2023/03/17 11:30:37;;;;;;;11.73;2.10;;;15.50;63.00;;;;;;4775507;30;20055;-75
2023/03/17 11:33:21;;;;;;;8.85;2.10;;;15.50;62.80;;;;;;4791962;30;20043;-75
2023/03/17 11:36:16;;;;;;;;;;;15.50;62.70;;;;;;4791531;30;20047;-75
2023/03/17 11:38:53;;;;;;;;;;;15.40;62.50;;;;;;4784216;30;19937;-76
2023/03/17 11:41:43;;;;;;;15.25;2.17;;;15.40;62.50;;;;;;4792107;30;19925;-75
2023/03/17 11:44:41;;;;;;;8.68;1.95;;;15.40;62.60;;;;;;4791697;30;20051;-73
2023/03/17 11:47:36;;;;;;;9.75;2.30;;;15.40;62.50;;;;;;4775558;30;20063;-75
2023/03/17 11:50:26;;;;;;;8.35;2.00;;;15.40;62.50;;;;;;4776185;30;20337;-74
2023/03/17 11:53:18;;;;;;;9.05;1.77;;;15.40;62.50;;;;;;4791578;30;20135;-75
2023/03/17 11:55:53;;;;;;;9.80;1.80;;;15.40;62.40;;;;;;4791609;30;20055;-74
2023/03/17 11:58:32;;;;;;;6.35;1.67;;;15.30;62.40;;;;;;4792097;30;20134;-75
2023/03/17 12:01:00;;;;;;;7.45;1.92;;;15.30;62.30;;;;;;4791116;30;20055;-74
2023/03/17 12:03:37;;;;;;;8.63;2.30;;;15.30;62.20;;;;;;4791730;30;20055;-73
2023/03/17 12:06:10;;;;;;;5.10;1.80;;;15.30;62.20;;;;;;4791761;30;20372;-74
2023/03/17 12:08:47;;;;;;;5.55;1.55;;;15.30;62.20;;;;;;4775738;30;20475;-76
2023/03/17 12:11:22;;;;;;;4.85;1.92;;;15.30;62.80;;;;;;4791208;30;20051;-73
2023/03/17 12:14:22;;;;;;;6.45;2.17;;;15.30;62.20;;;;;;4791546;30;20054;-73
2023/03/17 12:17:15;;;;;;;7.00;1.48;;;15.30;62.20;;;;;;4787632;30;20196;-75
2023/03/17 12:20:08;;;;;;;7.57;1.60;;;15.20;62.20;;;;;;4774070;30;20062;-74
2023/03/17 12:22:42;;;;;;;6.20;2.08;;;15.20;62.20;;;;;;4791374;30;20150;-74
2023/03/17 12:25:29;;;;;;;6.28;1.50;;;15.20;62.20;;;;;;4791699;30;20059;-72
2023/03/17 12:27:58;;;;;;;6.65;2.20;;;15.20;62.40;;;;;;4791020;29;20108;-74
2023/03/17 12:30:51;;;;;;;4.88;1.90;;;15.20;62.10;;;;;;4790961;30;20517;-74
2023/03/17 12:33:22;;;;;;;2.80;1.30;;;15.20;62.10;;;;;;4791249;30;20120;-73
2023/03/17 12:35:48;;;;;;;2.95;1.58;;;15.20;62.10;;;;;;4790133;30;20055;-73
2023/03/17 12:38:19;;;;;;;6.30;1.65;;;15.20;62.10;;;;;;4775044;30;20535;-77
2023/03/17 12:40:50;;;;;;;6.13;1.40;;;15.20;62.10;;;;;;4775269;30;20063;-73
2023/03/17 12:43:33;;;;;;;4.88;1.55;;;15.20;62.20;;;;;;4790815;30;20055;-75
2023/03/17 12:46:37;;;;;;;3.92;1.38;;;15.20;62.10;;;;;;4775343;30;20518;-74
2023/03/17 12:49:37;;;;;;;4.97;1.60;;;15.20;62.10;;;;;;4790504;30;20051;-74
2023/03/17 12:52:18;;;;;;;4.15;2.15;;;15.20;62.10;;;;;;4790687;30;20109;-75
2023/03/17 12:54:47;;;;;;;2.20;1.00;;;15.10;62.00;;;;;;4790848;30;20055;-73
2023/03/17 12:57:26;;;;;;;6.32;1.73;;;15.10;62.00;;;;;;4774854;30;20052;-74
2023/03/17 13:00:25;;;;;;;3.45;1.60;;;15.20;62.10;;;;;;4790432;30;20098;-74
2023/03/17 13:03:20;;;;;;;2.78;1.38;;;15.10;62.10;;;;;;4790413;30;20069;-75
2023/03/17 13:05:50;;;;;;;3.55;1.10;;;15.10;62.10;;;;;;4781156;30;20059;-75
2023/03/17 13:08:34;;;;;;;3.10;1.13;;;15.10;62.10;;;;;;4790368;30;20062;-73
2023/03/17 13:11:13;;;;;;;;;;;15.10;62.10;;;;;;4790758;30;20927;-74
2023/03/17 13:13:48;;;;;;;2.60;0.98;;;15.10;62.20;;;;;;4790731;30;19982;-74
2023/03/17 13:16:33;;;;;;;3.17;1.20;;;15.10;62.30;;;;;;4789990;30;20467;-75
2023/03/17 13:19:06;;;;;;;3.72;1.17;;;15.10;62.30;;;;;;4788608;29;20063;-74
2023/03/17 13:21:33;;;;;;;3.03;1.40;;;15.10;62.40;;;;;;4790039;30;20074;-74
2023/03/17 13:24:20;;;;;;;5.13;1.30;;;15.10;62.40;;;;;;4774575;30;20051;-74
2023/03/17 13:27:09;;;;;;;3.90;1.17;;;15.10;62.40;;;;;;4790432;30;20066;-74
2023/03/17 13:29:35;;;;;;;2.85;1.10;;;15.10;62.40;;;;;;4790675;30;20118;-74
2023/03/17 13:32:16;;;;;;;2.35;1.10;;;15.00;62.50;;;;;;4790445;30;20482;-75
2023/03/17 13:35:08;;;;;;;1.88;0.93;;;15.10;62.50;;;;;;4789630;30;20054;-74
2023/03/17 13:38:05;;;;;;;4.55;1.10;;;15.10;62.60;;;;;;4790060;30;20043;-73
2023/03/17 13:40:59;;;;;;;4.03;1.00;;;15.10;62.70;;;;;;4789564;30;20051;-75
2023/03/17 13:43:47;;;;;;;3.75;1.33;;;15.00;62.60;;;;;;4790307;30;20062;-74
2023/03/17 13:46:40;;;;;;;2.05;1.00;;;15.00;62.70;;;;;;4788315;30;20142;-80
2023/03/17 13:49:35;;;;;;;8.32;1.75;;;15.10;62.60;;;;;;4773378;30;20482;-77
2023/03/17 13:52:10;;;;;;;10.23;3.90;;;15.10;62.50;;;;;;4787536;30;20059;-78
2023/03/17 13:54:49;;;;;;;6.13;2.63;;;15.20;62.40;;;;;;4773991;30;20051;-77
2023/03/17 13:57:41;;;;;;;8.80;3.50;;;15.10;62.40;;;;;;4774898;30;20471;-79
2023/03/17 14:00:25;;;;;;;6.97;4.30;;;15.20;62.50;;;;;;4789640;30;20051;-77
2023/03/17 14:03:14;;;;;;;8.30;5.10;;;15.20;62.20;;;;;;4787809;30;20486;-77
2023/03/17 14:05:41;;;;;;;9.43;5.00;;;15.20;62.10;;;;;;4756359;30;20475;-79
2023/03/17 14:08:28;;;;;;;7.90;5.30;;;15.20;62.10;;;;;;4789834;30;20457;-79
2023/03/17 14:10:59;;;;;;;8.63;5.57;;;15.20;62.10;;;;;;4788997;30;20196;-76
2023/03/17 14:13:49;;;;;;;9.05;4.82;;;15.20;62.20;;;;;;4764666;30;20464;-80
2023/03/17 14:16:23;;;;;;;5.47;4.40;;;15.20;62.30;;;;;;4789653;30;20439;-78
2023/03/17 14:18:54;;;;;;;7.25;4.63;;;15.10;62.50;;;;;;4799712;29;20063;-78
2023/03/17 14:21:22;;;;;;;8.02;4.47;;;15.10;62.60;;;;;;4807193;29;20467;-78
2023/03/17 14:23:55;;;;;;;5.78;3.85;;;15.00;62.70;;;;;;4807671;29;20065;-77
2023/03/17 14:26:26;;;;;;;8.60;3.63;;;15.00;62.90;;;;;;4807563;29;20055;-82
2023/03/17 14:28:52;;;;;;;10.05;4.00;;;15.00;62.90;;;;;;4807129;29;20126;-80
2023/03/17 14:31:27;;;;;;;8.38;3.85;;;15.00;63.00;;;;;;4791802;29;20038;-75
2023/03/17 14:33:58;;;;;;;6.15;3.97;;;14.90;63.10;;;;;;4807940;29;20393;-77
2023/03/17 14:36:25;;;;;;;6.03;3.72;;;14.90;63.10;;;;;;4791793;29;20062;-79
2023/03/17 14:38:56;;;;;;;6.72;3.83;;;14.90;63.10;;;;;;4808415;29;20051;-78
2023/03/17 14:41:25;;;;;;;5.95;3.65;;;14.90;63.20;;;;;;4789566;29;20413;-79
2023/03/17 14:43:53;;;;;;;6.15;3.65;;;14.90;63.20;;;;;;4807547;29;20057;-79
2023/03/17 14:46:34;;;;;;;4.90;3.13;;;14.90;63.20;;;;;;4807474;29;20122;-78
2023/03/17 14:49:15;;;;;;;5.43;2.80;;;14.90;63.20;;;;;;4807724;29;20523;-79
2023/03/17 14:51:41;;;;;;;5.90;3.00;;;14.90;63.30;;;;;;4807706;29;20062;-80
2023/03/17 14:54:17;;;;;;;5.28;3.13;;;14.90;63.30;;;;;;4794768;29;20352;-74
2023/03/17 14:56:50;;;;;;;11.02;3.85;;;14.90;63.30;;;;;;4810158;29;20058;-72
2023/03/17 14:59:24;;;;;;;13.15;4.00;;;15.00;64.40;;;;;;4794413;29;20061;-79
2023/03/17 15:01:56;;;;;;;17.65;4.78;;;15.00;63.90;;;;;;4810329;29;20526;-73
2023/03/17 15:04:32;;;;;;;7.13;2.70;;;15.00;63.20;;;;;;4810393;29;20471;-74
2023/03/17 15:07:04;;;;;;;7.72;2.85;;;15.10;63.20;;;;;;4810593;29;20137;-71
2023/03/17 15:09:32;;;;;;;6.90;2.78;;;15.00;63.20;;;;;;4810187;29;20047;-73
2023/03/17 15:12:11;;;;;;;5.35;2.55;;;15.00;63.30;;;;;;4810106;29;20042;-75
2023/03/17 15:14:39;;;;;;;15.18;4.55;;;15.00;63.60;;;;;;4810760;29;20073;-70
2023/03/17 15:17:15;;;;;;;9.07;2.72;;;15.20;64.00;;;;;;4809695;29;20050;-74
2023/03/17 15:19:45;;;;;;;10.57;3.33;;;15.40;63.90;;;;;;4793038;29;20067;-76
2023/03/17 15:22:31;;;;;;;16.13;3.45;;;15.60;64.00;;;;;;4792004;30;20051;-75
2023/03/17 15:25:34;;;;;;;13.32;3.58;;;15.70;64.30;;;;;;4791931;30;20055;-76
2023/03/17 15:28:00;;;;;;;14.68;3.72;;;15.80;64.30;;;;;;4767775;30;20134;-74
2023/03/17 15:30:26;;;;;;;18.92;3.22;;;15.90;64.00;;;;;;4792071;30;20126;-72
2023/03/17 15:33:00;;;;;;;24.42;4.25;;;15.90;64.00;;;;;;4792339;30;20101;-73
2023/03/17 15:35:26;;;;;;;18.58;3.33;;;15.90;64.20;;;;;;4791627;30;20051;-75
2023/03/17 15:37:53;;;;;;;20.25;4.10;;;16.00;64.10;;;;;;4792622;30;20059;-72
2023/03/17 15:40:19;;;;;;;22.73;3.53;;;16.00;64.40;;;;;;4777081;30;20521;-75
2023/03/17 15:42:45;;;;;;;23.85;4.18;;;16.00;64.30;;;;;;4792159;30;20059;-74
2023/03/17 15:45:15;;;;;;;22.88;4.32;;;16.10;64.60;;;;;;4792809;30;20059;-74
2023/03/17 15:47:42;;;;;;;20.90;4.03;;;16.10;64.90;;;;;;4791946;30;20467;-73
2023/03/17 15:50:22;;;;;;;20.83;4.03;;;16.10;65.10;;;;;;4776089;30;20055;-74
2023/03/17 15:52:52;;;;;;;33.72;4.97;;;16.10;65.40;;;;;;4791426;30;20074;-74
2023/03/17 15:55:24;;;;;;;30.58;4.18;;;16.20;66.00;;;;;;4791362;30;20051;-73
2023/03/17 15:57:50;;;;;;;24.58;4.32;;;16.20;66.00;;;;;;4796539;29;20486;-74
2023/03/17 16:00:18;;;;;;;22.73;3.78;;;16.30;66.10;;;;;;4791595;30;20130;-74
2023/03/17 16:02:46;;;;;;;26.83;4.28;;;16.50;66.10;;;;;;4791611;29;20055;-74
2023/03/17 16:05:22;;;;;;;21.52;4.05;;;16.60;66.20;;;;;;4791033;30;20066;-74
2023/03/17 16:07:49;;;;;;;26.45;4.50;;;16.70;66.80;;;;;;4790368;30;20051;-76
2023/03/17 16:10:15;;;;;;;20.95;3.67;;;16.70;66.70;;;;;;4775812;30;20490;-74
2023/03/17 16:12:41;;;;;;;30.55;5.07;;;16.70;67.00;;;;;;4791827;30;20051;-73
2023/03/17 16:15:08;;;;;;;22.77;3.88;;;16.70;67.30;;;;;;4791141;30;20071;-71
2023/03/17 16:17:34;;;;;;;28.80;5.05;;;16.70;67.60;;;;;;4793579;29;20051;-72
2023/03/17 16:20:00;;;;;;;24.63;4.85;;;16.70;67.60;;;;;;4812331;29;20062;-72
2023/03/17 16:22:36;;;;;;;22.13;4.28;;;16.70;67.70;;;;;;4809474;29;20061;-73
2023/03/17 16:25:06;;;;;;;22.75;4.38;;;16.70;67.80;;;;;;4805499;29;20047;-73
2023/03/17 16:27:32;;;;;;;26.67;3.78;;;16.60;68.00;;;;;;4815149;29;20050;-71
2023/03/17 16:29:58;;;;;;;21.60;3.45;;;16.60;68.10;;;;;;4809429;29;20408;-71
2023/03/17 16:32:24;;;;;;;24.52;3.10;;;16.60;68.30;;;;;;4809347;29;20051;-73
2023/03/17 16:34:50;;;;;;;21.52;2.92;;;16.50;68.50;;;;;;4801520;29;20410;-74
2023/03/17 16:37:16;;;;;;;25.30;4.03;;;16.50;68.50;;;;;;4806958;29;20055;-73
2023/03/17 16:39:42;;;;;;;28.58;4.63;;;16.50;68.40;;;;;;4791041;29;20051;-73
2023/03/17 16:42:37;;;;;;;30.23;4.80;;;16.50;68.50;;;;;;4810337;29;20051;-74
2023/03/17 16:45:06;;;;;;;28.60;3.47;;;16.40;68.80;;;;;;4792614;29;20119;-72
2023/03/17 16:47:32;;;;;;;23.42;4.32;;;16.40;68.70;;;;;;4792014;29;20051;-73
2023/03/17 16:49:57;;;;;;;23.17;4.13;;;16.40;68.90;;;;;;4815548;29;20456;-72
2023/03/17 16:52:24;;;;;;;24.05;3.13;;;16.40;68.90;;;;;;4793280;29;20058;-72
2023/03/17 16:54:50;;;;;;;30.30;5.13;;;16.30;68.40;;;;;;4808396;29;20069;-72
2023/03/17 16:57:16;;;;;;;22.95;4.22;;;16.30;68.70;;;;;;4796939;29;20047;-72
2023/03/17 16:59:41;;;;;;;25.83;3.00;;;16.30;68.60;;;;;;4790478;30;20059;-71
2023/03/17 17:02:15;;;;;;;28.70;4.25;;;16.30;68.60;;;;;;4790627;30;20376;-72
2023/03/17 17:04:40;;;;;;;18.60;3.90;;;16.20;68.60;;;;;;4790703;30;20088;-72
2023/03/17 17:07:06;;;;;;;25.05;4.35;;;16.20;68.70;;;;;;4760054;30;20111;-78
2023/03/17 17:09:32;;;;;;;22.52;3.92;;;16.20;68.90;;;;;;4790918;30;20047;-76
2023/03/17 17:11:57;;;;;;;31.08;4.93;;;16.20;68.60;;;;;;4793079;29;20055;-72
2023/03/17 17:14:23;;;;;;;29.73;4.93;;;16.20;68.50;;;;;;4808108;29;20490;-72
2023/03/17 17:16:49;;;;;;;40.97;5.28;;;16.20;68.40;;;;;;4808900;29;20099;-72
2023/03/17 17:19:16;;;;;;;32.40;4.78;;;16.10;68.20;;;;;;4789436;29;20093;-73
2023/03/17 17:21:42;;;;;;;36.38;4.10;;;16.10;68.00;;;;;;4774364;30;20055;-72
2023/03/17 17:24:11;;;;;;;28.13;4.80;;;16.10;67.80;;;;;;4790183;30;20101;-73
2023/03/17 17:26:37;;;;;;;22.85;3.75;;;16.10;67.70;;;;;;4775149;30;20467;-72
2023/03/17 17:29:05;;;;;;;27.42;3.95;;;16.00;67.60;;;;;;4774888;30;20047;-74
2023/03/17 17:31:31;;;;;;;15.70;3.47;;;16.00;67.60;;;;;;4790511;30;20063;-73
2023/03/17 17:33:57;;;;;;;15.68;3.38;;;16.00;67.60;;;;;;4790998;30;20055;-74
2023/03/17 17:36:25;;;;;;;21.45;4.35;;;16.00;67.50;;;;;;4790277;30;20055;-72
2023/03/17 17:38:50;;;;;;;17.98;3.55;;;16.00;67.40;;;;;;4774754;30;20120;-74
2023/03/17 17:41:20;;;;;;;15.40;3.67;;;15.90;67.40;;;;;;4790048;30;20059;-74
2023/03/17 17:43:46;;;;;;;18.95;3.65;;;15.90;67.20;;;;;;4790724;30;20051;-74
2023/03/17 17:46:16;;;;;;;17.05;3.17;;;15.90;67.10;;;;;;4790813;30;20085;-74
2023/03/17 17:48:42;;;;;;;14.02;3.13;;;15.80;67.10;;;;;;4790203;30;20097;-73
2023/03/17 17:51:08;;;;;;;18.20;3.22;;;15.90;67.10;;;;;;4773893;30;20150;-75
2023/03/17 17:53:34;;;;;;;14.38;3.45;;;15.80;67.00;;;;;;4789937;30;20051;-73
2023/03/17 17:55:59;;;;;;;19.63;3.47;;;15.80;67.00;;;;;;4790117;30;20138;-74
2023/03/17 17:58:25;;;;;;;15.60;3.22;;;15.80;66.90;;;;;;4790322;30;20111;-75
2023/03/17 18:00:56;;;;;;;11.50;3.20;;;15.80;66.80;;;;;;4773807;30;20047;-74
2023/03/17 18:03:24;;;;;;;18.08;4.90;;;15.80;66.80;;;;;;4789660;30;20380;-73
2023/03/17 18:05:56;;;;;;;14.32;3.25;;;15.80;66.80;;;;;;4789767;30;20055;-75
2023/03/17 18:08:23;;;;;;;11.02;2.45;;;15.80;66.80;;;;;;4773827;30;20063;-73
2023/03/17 18:10:49;;;;;;;14.90;3.95;;;15.80;67.10;;;;;;4774184;30;20090;-74
2023/03/17 18:13:15;;;;;;;18.33;2.90;;;15.80;67.10;;;;;;4766862;30;20075;-76
2023/03/17 18:15:41;;;;;;;13.90;3.63;;;15.80;67.00;;;;;;4771918;30;20154;-73
2023/03/17 18:18:07;;;;;;;14.80;3.55;;;15.80;66.80;;;;;;4772391;30;20141;-73
2023/03/17 18:20:33;;;;;;;12.27;2.70;;;15.80;66.80;;;;;;4785312;30;20103;-74
2023/03/17 18:22:59;;;;;;;20.08;3.47;;;15.80;66.80;;;;;;4789753;30;20058;-74